Airport View

Enter AWOS ICAO identifier for current METAR.

ex. KFNL

KEYE 212253Z AUTO 20006KT 10SM CLR 28/16 A3012 RMK AO2 SLP193 T02780161

21 Sep 2019 23:24

Frequency: 121.575

Phone: 317-329-1754

Other Area AWOS: KIND - KTYQ - KHFY - KMQJ

TAF AMD KIND 212013Z 2120/2224 21013G19KT P6SM FEW050 BKN100 FM220000 19006KT P6SM BKN180 FM220300 18006KT P6SM FEW250 FM221400 21011G22KT P6SM SCT250 FM222100 22010G23KT P6SM BKN150